Time;durP1;ratioP1;P1;durP2;ratioP2;P2;SDS_P1;SDS_P2;PMS_P1;PMS_P2;Temp;Humidity;BMP_temperature;BMP_pressure;BME280_temperature;BME280_humidity;BME280_pressure;Samples;Min_cycle;Max_cycle;Signal;HPM_P1;HPM_P2
2021/12/07 00:02:09;;;;;;;7.88;5.30;;;2.90;99.90;;;;;;5092856;28;20044;-76
2021/12/07 00:04:36;;;;;;;7.55;5.95;;;2.90;99.90;;;;;;5074631;28;20419;-76
2021/12/07 00:07:03;;;;;;;9.00;6.05;;;3.00;99.90;;;;;;5092807;28;20127;-80
2021/12/07 00:09:29;;;;;;;9.55;7.57;;;3.00;99.90;;;;;;5092815;28;20047;-75
2021/12/07 00:11:56;;;;;;;8.48;6.60;;;3.00;99.90;;;;;;5092751;28;20036;-76
2021/12/07 00:14:33;;;;;;;25.55;16.80;;;3.00;99.90;;;;;;5074754;28;20115;-76
2021/12/07 00:16:59;;;;;;;13.35;9.68;;;3.00;99.90;;;;;;5074758;28;20046;-75
2021/12/07 00:19:25;;;;;;;87.50;48.63;;;2.90;99.90;;;;;;5074605;28;20040;-75
2021/12/07 00:21:51;;;;;;;21.65;14.60;;;2.90;99.90;;;;;;5091456;28;20047;-75
2021/12/07 00:24:17;;;;;;;12.63;9.80;;;2.80;99.90;;;;;;5094658;28;20055;-75
2021/12/07 00:26:43;;;;;;;21.15;14.95;;;2.80;99.90;;;;;;5095519;28;20043;-75
2021/12/07 00:29:10;;;;;;;16.95;11.10;;;2.80;99.90;;;;;;5096339;28;20024;-76
2021/12/07 00:31:46;;;;;;;19.38;10.65;;;2.80;99.90;;;;;;5096610;28;20063;-75
2021/12/07 00:34:26;;;;;;;27.90;18.10;;;2.80;99.90;;;;;;5096624;28;20044;-77
2021/12/07 00:36:52;;;;;;;24.48;15.10;;;2.80;99.90;;;;;;5080624;28;20032;-76
2021/12/07 00:39:22;;;;;;;27.63;18.90;;;2.80;99.90;;;;;;5096491;28;20047;-75
2021/12/07 00:41:50;;;;;;;19.90;13.83;;;2.90;99.90;;;;;;5112108;28;20028;-82
2021/12/07 00:44:18;;;;;;;15.73;10.85;;;2.90;99.90;;;;;;5096195;28;20290;-75
2021/12/07 00:46:43;;;;;;;13.90;10.50;;;2.90;99.90;;;;;;5095898;28;20059;-75
2021/12/07 00:49:10;;;;;;;8.50;6.20;;;3.00;99.90;;;;;;5095839;28;20040;-75
2021/12/07 00:51:35;;;;;;;6.68;4.68;;;2.90;99.90;;;;;;5078064;28;20051;-75
2021/12/07 00:54:02;;;;;;;6.10;3.85;;;3.20;99.90;;;;;;5096204;28;20036;-75
2021/12/07 00:56:28;;;;;;;9.88;8.40;;;3.30;99.90;;;;;;5077835;28;20131;-75
2021/12/07 00:58:54;;;;;;;6.97;5.50;;;3.20;99.90;;;;;;5077656;28;20093;-75
2021/12/07 01:01:20;;;;;;;6.28;4.63;;;3.00;99.90;;;;;;5095825;28;20062;-75
2021/12/07 01:03:48;;;;;;;6.47;4.47;;;3.10;99.90;;;;;;5095668;28;20036;-75
2021/12/07 01:06:34;;;;;;;7.93;4.47;;;3.30;99.90;;;;;;5095856;28;20565;-80
2021/12/07 01:25:29;;;;;;;8.65;3.75;;;3.70;99.90;;;;;;5095513;28;20090;-75
2021/12/07 01:28:00;;;;;;;7.07;3.47;;;4.00;99.90;;;;;;5095499;28;20032;-75
2021/12/07 01:30:42;;;;;;;9.48;3.78;;;4.20;99.90;;;;;;5095322;28;20040;-75
2021/12/07 01:36:16;;;;;;;10.05;3.30;;;4.20;99.90;;;;;;5053466;28;20036;-75
2021/12/07 01:52:45;;;;;;;9.80;2.90;;;4.40;99.90;;;;;;5095109;28;20093;-75
2021/12/07 02:00:27;;;;;;;9.02;2.33;;;4.30;99.90;;;;;;5094677;28;20020;-74
2021/12/07 02:02:52;;;;;;;10.77;2.85;;;4.40;99.90;;;;;;5076648;28;20039;-75
2021/12/07 02:05:19;;;;;;;10.85;3.47;;;4.30;99.90;;;;;;5094580;28;20134;-74
2021/12/07 02:07:45;;;;;;;10.77;2.67;;;4.40;99.90;;;;;;5094784;28;20114;-75
2021/12/07 02:10:16;;;;;;;7.90;2.50;;;4.50;99.90;;;;;;5076388;28;20051;-75
2021/12/07 02:12:44;;;;;;;5.97;2.85;;;4.40;99.90;;;;;;5094615;28;20036;-75
2021/12/07 02:15:16;;;;;;;7.53;3.00;;;4.40;99.90;;;;;;5094518;28;20040;-75
2021/12/07 02:17:43;;;;;;;9.30;2.28;;;4.40;99.90;;;;;;5076254;28;20126;-76
2021/12/07 02:20:10;;;;;;;8.30;2.50;;;4.40;99.90;;;;;;5094081;28;20043;-75
2021/12/07 02:22:36;;;;;;;6.00;2.28;;;4.40;99.90;;;;;;5094387;28;20123;-75
2021/12/07 02:25:05;;;;;;;7.80;2.25;;;4.50;99.90;;;;;;5076102;28;20051;-75
2021/12/07 02:27:31;;;;;;;11.82;2.20;;;4.40;99.90;;;;;;5076119;28;20040;-75
2021/12/07 02:29:56;;;;;;;12.25;2.67;;;4.50;99.90;;;;;;5076013;28;20479;-76
2021/12/07 02:32:22;;;;;;;13.55;2.67;;;4.40;99.90;;;;;;5094345;28;20032;-75
2021/12/07 02:34:58;;;;;;;7.57;2.20;;;4.40;99.90;;;;;;5094211;28;20036;-76
2021/12/07 02:37:26;;;;;;;7.18;2.65;;;4.40;99.90;;;;;;5094089;28;20071;-75
2021/12/07 02:39:52;;;;;;;11.18;2.47;;;4.40;99.90;;;;;;5076016;28;20047;-75
2021/12/07 02:42:18;;;;;;;16.48;3.28;;;4.40;99.90;;;;;;5075526;28;20035;-75
2021/12/07 02:44:44;;;;;;;12.85;2.28;;;4.40;99.90;;;;;;5092218;28;20046;-74
2021/12/07 02:47:10;;;;;;;11.60;2.55;;;4.40;99.90;;;;;;5072103;28;20875;-75
2021/12/07 02:49:36;;;;;;;10.93;2.40;;;4.40;99.90;;;;;;5071342;28;20036;-78
2021/12/07 02:52:04;;;;;;;5.07;2.03;;;4.40;99.90;;;;;;5090547;28;20040;-75
2021/12/07 02:54:33;;;;;;;9.50;2.03;;;4.30;99.90;;;;;;5093938;28;20499;-74
2021/12/07 02:56:59;;;;;;;10.32;2.72;;;4.30;99.90;;;;;;5075463;28;20070;-75
2021/12/07 02:59:26;;;;;;;5.95;1.95;;;4.40;99.90;;;;;;5093614;28;20079;-75
2021/12/07 03:02:00;;;;;;;9.88;2.97;;;4.40;99.90;;;;;;5093488;28;20380;-76
2021/12/07 03:04:34;;;;;;;10.30;2.28;;;4.40;99.90;;;;;;5093221;28;20514;-81
2021/12/07 03:07:20;;;;;;;7.85;2.58;;;4.40;99.90;;;;;;5093421;28;20036;-75
2021/12/07 03:26:25;;;;;;;8.13;2.15;;;4.30;99.90;;;;;;5093394;28;20176;-74
2021/12/07 03:28:54;;;;;;;13.18;3.30;;;4.30;99.90;;;;;;5093274;28;20028;-75
2021/12/07 03:31:21;;;;;;;10.77;2.65;;;4.30;99.90;;;;;;5093014;28;20051;-74
2021/12/07 03:33:47;;;;;;;13.45;2.42;;;4.30;99.90;;;;;;5091877;28;20169;-75
2021/12/07 03:36:14;;;;;;;12.23;2.90;;;4.30;99.90;;;;;;5093244;28;20609;-75
2021/12/07 03:38:41;;;;;;;10.63;3.17;;;4.40;99.90;;;;;;5092004;28;20032;-75
2021/12/07 03:41:08;;;;;;;9.18;3.53;;;4.30;99.90;;;;;;5093139;28;20122;-75
2021/12/07 03:43:34;;;;;;;14.18;4.30;;;4.20;99.90;;;;;;5092905;28;20119;-77
2021/12/07 03:46:00;;;;;;;14.80;4.78;;;4.00;99.90;;;;;;5092823;28;20488;-75
2021/12/07 03:48:27;;;;;;;11.18;4.90;;;4.00;99.90;;;;;;5075006;28;20038;-75
2021/12/07 03:50:53;;;;;;;13.32;5.25;;;4.00;99.90;;;;;;5091765;28;20097;-75
2021/12/07 03:53:20;;;;;;;13.85;4.78;;;4.00;99.90;;;;;;5093064;28;20032;-76
2021/12/07 03:55:45;;;;;;;8.60;3.85;;;3.90;99.90;;;;;;5091324;28;20040;-75
2021/12/07 03:58:11;;;;;;;18.13;5.03;;;4.00;99.90;;;;;;5078812;28;20035;-75
2021/12/07 04:00:41;;;;;;;14.50;4.50;;;4.00;99.90;;;;;;5078941;28;20462;-78
2021/12/07 04:03:10;;;;;;;6.55;3.90;;;4.00;99.90;;;;;;5097166;28;20040;-75
2021/12/07 04:05:45;;;;;;;13.05;4.68;;;4.00;99.90;;;;;;5097011;28;20519;-75
2021/12/07 04:08:12;;;;;;;11.88;3.72;;;3.90;99.90;;;;;;5095722;28;20040;-75
2021/12/07 04:10:38;;;;;;;10.82;3.10;;;3.90;99.90;;;;;;5095628;28;20399;-79
2021/12/07 04:13:04;;;;;;;12.07;4.38;;;3.90;99.90;;;;;;5096738;28;20051;-75
2021/12/07 04:15:30;;;;;;;13.27;4.32;;;3.90;99.90;;;;;;5096731;28;20514;-75
2021/12/07 04:17:55;;;;;;;16.42;4.05;;;3.90;99.90;;;;;;5096515;28;20117;-75
2021/12/07 04:20:21;;;;;;;13.50;3.95;;;3.90;99.90;;;;;;5096469;28;20441;-75
2021/12/07 04:22:48;;;;;;;13.07;3.78;;;4.00;99.90;;;;;;5096430;28;20048;-75
2021/12/07 04:25:15;;;;;;;13.35;4.35;;;4.00;99.90;;;;;;5096350;28;20046;-75
2021/12/07 04:27:42;;;;;;;11.07;4.00;;;4.10;99.90;;;;;;5096486;28;20109;-75
2021/12/07 04:30:16;;;;;;;6.80;3.28;;;4.10;99.90;;;;;;5095168;28;20044;-81
2021/12/07 04:32:43;;;;;;;14.38;4.35;;;4.00;99.90;;;;;;5095491;28;20044;-76
2021/12/07 04:35:11;;;;;;;13.75;4.22;;;4.00;99.90;;;;;;5096637;28;20032;-75
2021/12/07 04:37:37;;;;;;;10.10;3.47;;;4.10;99.90;;;;;;5095269;28;20032;-78
2021/12/07 04:40:05;;;;;;;14.20;3.65;;;4.10;99.90;;;;;;5096354;28;20035;-75
2021/12/07 04:42:31;;;;;;;12.30;3.80;;;4.00;99.90;;;;;;5094541;28;20190;-75
2021/12/07 04:45:00;;;;;;;13.40;4.50;;;4.00;99.90;;;;;;5095955;28;20134;-75
2021/12/07 04:47:58;;;;;;;15.02;3.92;;;4.00;99.90;;;;;;5096246;28;20123;-74
2021/12/07 04:58:13;;;;;;;9.88;3.78;;;4.20;99.90;;;;;;5095833;28;20070;-76
2021/12/07 05:00:38;;;;;;;14.05;3.97;;;4.20;99.90;;;;;;5095860;28;20510;-75
2021/12/07 05:03:10;;;;;;;13.40;4.18;;;4.10;99.90;;;;;;5095864;28;20111;-75
2021/12/07 05:05:41;;;;;;;9.00;3.38;;;4.10;99.90;;;;;;5095843;28;20048;-75
2021/12/07 05:08:11;;;;;;;12.45;3.15;;;4.00;99.90;;;;;;5095646;28;20044;-75
2021/12/07 05:11:00;;;;;;;16.30;3.80;;;4.00;99.90;;;;;;5077523;28;20044;-75
2021/12/07 05:13:36;;;;;;;10.50;3.47;;;4.10;99.90;;;;;;5095412;28;20522;-76
2021/12/07 05:16:25;;;;;;;;;;;4.10;99.90;;;;;;5095131;28;20578;-76
2021/12/07 05:24:16;;;;;;;13.43;3.92;;;3.90;99.90;;;;;;5095380;28;20094;-76
2021/12/07 05:40:10;;;;;;;13.60;3.70;;;3.90;99.90;;;;;;5095460;28;20499;-74
2021/12/07 05:42:37;;;;;;;13.63;3.38;;;3.90;99.90;;;;;;5095080;28;20044;-75
2021/12/07 05:45:06;;;;;;;17.25;3.72;;;3.90;99.90;;;;;;5095043;28;20059;-75
2021/12/07 05:47:31;;;;;;;14.82;4.43;;;4.00;99.90;;;;;;5095239;28;20399;-75
2021/12/07 05:49:57;;;;;;;24.20;5.00;;;4.00;99.90;;;;;;5095209;28;20044;-75
2021/12/07 05:52:23;;;;;;;16.27;4.70;;;4.10;99.90;;;;;;5093695;28;20039;-75
2021/12/07 05:54:49;;;;;;;14.15;3.92;;;4.10;99.90;;;;;;5076736;28;20036;-81
2021/12/07 05:57:15;;;;;;;16.85;3.47;;;4.10;99.90;;;;;;5094768;28;20039;-75
2021/12/07 05:59:41;;;;;;;21.50;3.75;;;4.00;99.90;;;;;;5094790;28;20475;-75
2021/12/07 06:02:07;;;;;;;15.60;3.63;;;4.10;99.90;;;;;;5094574;28;20523;-75
2021/12/07 06:04:33;;;;;;;16.63;3.92;;;4.10;99.90;;;;;;5094423;28;20044;-76
2021/12/07 06:06:59;;;;;;;14.55;3.50;;;4.20;99.90;;;;;;5076526;28;20052;-75
2021/12/07 06:09:26;;;;;;;19.30;3.45;;;4.20;99.90;;;;;;5093364;28;20043;-75
2021/12/07 06:11:53;;;;;;;13.75;3.30;;;4.20;99.90;;;;;;5093278;28;20046;-75
2021/12/07 06:14:21;;;;;;;15.88;3.13;;;4.20;99.90;;;;;;5093181;28;20491;-75
2021/12/07 06:16:47;;;;;;;15.82;3.38;;;4.20;99.90;;;;;;5094237;28;20115;-76
2021/12/07 06:19:14;;;;;;;11.05;3.20;;;4.20;99.90;;;;;;5093043;28;20047;-75
2021/12/07 06:21:40;;;;;;;16.83;3.20;;;4.10;99.90;;;;;;5094372;28;20040;-75
2021/12/07 06:24:06;;;;;;;18.20;3.80;;;4.20;99.90;;;;;;5094229;28;20598;-74
2021/12/07 06:26:35;;;;;;;21.45;3.28;;;4.20;99.90;;;;;;5094099;28;20036;-75
2021/12/07 06:29:01;;;;;;;15.95;4.28;;;4.20;99.90;;;;;;5092580;28;20036;-75
2021/12/07 06:31:27;;;;;;;13.10;3.35;;;4.30;99.90;;;;;;5093679;28;20028;-77
2021/12/07 06:33:53;;;;;;;11.30;3.38;;;4.40;99.90;;;;;;5092389;28;20039;-75
2021/12/07 06:36:19;;;;;;;15.85;3.97;;;4.20;99.90;;;;;;5074802;28;20056;-76
2021/12/07 06:38:47;;;;;;;16.20;3.83;;;4.20;99.90;;;;;;5094110;28;20077;-82
2021/12/07 06:41:13;;;;;;;19.15;4.88;;;4.20;99.90;;;;;;5086143;28;20036;-76
2021/12/07 06:43:39;;;;;;;16.63;3.30;;;4.20;99.90;;;;;;5086600;28;20038;-75
2021/12/07 06:46:05;;;;;;;16.60;3.75;;;4.20;99.90;;;;;;5078213;28;20060;-74
2021/12/07 06:48:31;;;;;;;19.00;5.00;;;4.20;99.90;;;;;;5080967;28;20119;-75
2021/12/07 06:50:57;;;;;;;12.55;2.60;;;4.20;99.90;;;;;;5086274;28;20123;-76
2021/12/07 06:53:23;;;;;;;24.92;4.43;;;4.60;99.90;;;;;;5072086;28;20036;-78
2021/12/07 06:55:50;;;;;;;36.47;14.88;;;4.80;99.90;;;;;;5055415;28;20590;-76
2021/12/07 06:58:16;;;;;;;49.70;24.65;;;4.50;99.90;;;;;;5055391;28;20060;-75
2021/12/07 07:00:42;;;;;;;44.67;16.13;;;4.30;99.90;;;;;;5075564;28;20075;-76
2021/12/07 07:03:08;;;;;;;35.85;18.50;;;4.20;99.90;;;;;;5068553;28;20032;-83
2021/12/07 07:05:34;;;;;;;35.28;19.13;;;4.00;99.90;;;;;;5073181;28;20098;-84
2021/12/07 07:08:00;;;;;;;46.30;29.80;;;3.90;99.90;;;;;;5088711;28;20055;-83
2021/12/07 07:10:26;;;;;;;50.95;32.63;;;3.90;99.90;;;;;;5056409;28;20798;-77
2021/12/07 07:12:52;;;;;;;33.88;21.70;;;3.90;99.90;;;;;;5076650;28;20037;-75
2021/12/07 07:15:18;;;;;;;39.25;26.50;;;4.20;99.90;;;;;;5053518;28;20423;-76
2021/12/07 07:17:44;;;;;;;34.50;19.83;;;4.00;99.90;;;;;;5073056;28;20105;-75
2021/12/07 07:20:13;;;;;;;56.53;27.80;;;3.90;99.90;;;;;;5055096;28;20450;-75
2021/12/07 07:22:40;;;;;;;79.65;41.10;;;3.80;99.90;;;;;;5073389;28;20032;-75
2021/12/07 07:25:07;;;;;;;83.28;42.35;;;3.80;99.90;;;;;;5079819;28;20052;-75
2021/12/07 07:27:32;;;;;;;30.40;17.92;;;3.80;99.90;;;;;;5073086;28;20074;-75
2021/12/07 07:29:59;;;;;;;45.20;22.40;;;3.80;99.90;;;;;;5088673;28;20450;-76
2021/12/07 07:32:25;;;;;;;41.35;12.55;;;3.70;99.90;;;;;;5072281;28;20044;-75
2021/12/07 07:34:51;;;;;;;21.42;8.48;;;3.80;99.90;;;;;;5073169;28;20529;-76
2021/12/07 07:37:17;;;;;;;20.55;7.43;;;3.90;99.90;;;;;;5073018;28;20123;-75
2021/12/07 07:39:43;;;;;;;20.30;6.45;;;3.90;99.90;;;;;;5073079;28;20051;-75
2021/12/07 07:42:10;;;;;;;42.03;16.83;;;3.90;99.90;;;;;;5073768;28;20035;-75
2021/12/07 07:44:36;;;;;;;33.42;11.85;;;3.90;99.90;;;;;;5093135;28;20043;-79
2021/12/07 07:47:02;;;;;;;39.55;17.48;;;3.90;99.90;;;;;;5074840;28;20043;-82
2021/12/07 07:49:29;;;;;;;46.63;19.23;;;3.90;99.90;;;;;;5093077;28;20032;-75
2021/12/07 07:51:55;;;;;;;46.85;21.50;;;4.00;99.90;;;;;;5091149;28;20165;-75
2021/12/07 07:54:21;;;;;;;94.18;44.45;;;3.90;99.90;;;;;;5081807;28;20117;-76
2021/12/07 07:56:46;;;;;;;16.52;6.60;;;3.90;99.90;;;;;;5054896;28;20040;-78
2021/12/07 07:59:12;;;;;;;25.73;8.32;;;3.90;99.90;;;;;;5071413;28;20048;-75
2021/12/07 08:01:38;;;;;;;18.98;6.10;;;3.90;99.90;;;;;;5072712;28;20029;-75
2021/12/07 08:04:04;;;;;;;18.67;5.65;;;3.80;99.90;;;;;;5072645;28;20032;-75
2021/12/07 08:06:30;;;;;;;19.38;5.72;;;3.80;99.90;;;;;;5072712;28;20492;-75
2021/12/07 08:08:59;;;;;;;16.77;5.78;;;3.80;99.90;;;;;;5072905;28;20380;-76
2021/12/07 08:11:25;;;;;;;18.42;5.25;;;3.80;99.90;;;;;;5072710;28;20466;-75
2021/12/07 08:13:51;;;;;;;20.23;6.65;;;4.00;99.90;;;;;;5054528;28;20037;-75
2021/12/07 08:16:17;;;;;;;24.00;7.88;;;4.20;99.90;;;;;;5073046;28;20040;-75
2021/12/07 08:18:47;;;;;;;25.85;7.00;;;4.40;99.90;;;;;;5054515;28;20087;-75
2021/12/07 08:21:14;;;;;;;;;;;4.60;99.90;;;;;;5054733;28;20040;-76
2021/12/07 08:23:41;;;;;;;28.63;13.70;;;4.80;99.90;;;;;;5053550;28;20003;-75
2021/12/07 08:26:09;;;;;;;41.67;19.10;;;4.80;99.90;;;;;;5054164;28;20094;-75
2021/12/07 08:28:35;;;;;;;38.58;17.25;;;5.10;99.90;;;;;;5071212;28;20136;-75
2021/12/07 08:31:02;;;;;;;21.88;12.13;;;5.20;99.90;;;;;;5072421;28;20119;-75
2021/12/07 08:33:28;;;;;;;21.23;9.77;;;5.30;99.90;;;;;;5054323;28;20123;-76
2021/12/07 08:35:54;;;;;;;105.28;71.72;;;6.10;99.90;;;;;;5071001;28;20119;-77
2021/12/07 08:38:21;;;;;;;203.50;125.80;;;5.50;99.90;;;;;;5054198;28;20037;-77
2021/12/07 08:40:53;;;;;;;27.48;16.73;;;5.70;99.90;;;;;;5054312;28;20060;-76
2021/12/07 08:43:21;;;;;;;26.13;12.98;;;5.80;99.90;;;;;;5056655;28;20047;-76
2021/12/07 08:45:47;;;;;;;30.75;15.68;;;5.80;99.90;;;;;;5075968;28;20060;-76
2021/12/07 08:48:13;;;;;;;23.63;14.02;;;5.90;99.90;;;;;;5076053;28;20040;-75
2021/12/07 08:50:41;;;;;;;28.85;13.63;;;5.90;99.90;;;;;;5091513;28;20189;-76
2021/12/07 08:53:11;;;;;;;26.70;13.45;;;6.00;99.90;;;;;;5075404;28;20391;-76
2021/12/07 09:01:11;;;;;;;27.88;16.05;;;6.00;99.90;;;;;;5076166;28;20035;-78
2021/12/07 09:03:37;;;;;;;29.08;13.23;;;5.90;99.90;;;;;;5096120;28;20028;-75
2021/12/07 09:06:04;;;;;;;21.67;11.20;;;5.80;99.90;;;;;;5095928;28;20044;-75
2021/12/07 09:08:30;;;;;;;19.48;11.57;;;5.80;99.90;;;;;;5095808;28;20039;-75
2021/12/07 09:10:56;;;;;;;18.98;11.75;;;5.90;99.90;;;;;;5095461;28;20094;-76
2021/12/07 09:13:24;;;;;;;22.25;12.23;;;5.90;99.90;;;;;;5095337;28;20043;-75
2021/12/07 09:15:54;;;;;;;21.08;11.35;;;5.90;99.90;;;;;;5095693;28;20074;-76
2021/12/07 09:18:20;;;;;;;24.20;13.07;;;6.10;99.90;;;;;;5095729;28;20071;-75
2021/12/07 09:20:46;;;;;;;38.30;18.00;;;6.00;99.90;;;;;;5095736;28;20454;-76
2021/12/07 09:23:12;;;;;;;20.83;12.73;;;5.90;99.90;;;;;;5095765;28;20089;-76
2021/12/07 09:25:38;;;;;;;29.95;15.00;;;5.70;99.90;;;;;;5076999;28;20044;-76
2021/12/07 09:28:05;;;;;;;55.00;29.38;;;6.00;99.90;;;;;;5095410;28;20434;-75
2021/12/07 09:30:31;;;;;;;39.97;20.70;;;6.10;99.90;;;;;;5095700;28;20039;-76
2021/12/07 09:32:57;;;;;;;36.97;19.52;;;6.10;99.90;;;;;;5095626;28;20032;-76
2021/12/07 09:35:23;;;;;;;43.45;21.05;;;6.20;99.90;;;;;;5089486;28;20579;-78
2021/12/07 09:37:52;;;;;;;29.73;17.27;;;6.20;99.90;;;;;;5089523;28;20395;-76
2021/12/07 09:40:20;;;;;;;41.42;24.00;;;6.40;99.90;;;;;;5093995;28;20573;-76
2021/12/07 09:42:47;;;;;;;68.97;29.67;;;6.10;99.90;;;;;;5094654;28;20032;-77
2021/12/07 09:45:14;;;;;;;42.13;25.15;;;5.60;99.90;;;;;;5094224;28;20051;-74
2021/12/07 09:47:40;;;;;;;39.92;21.38;;;5.60;99.90;;;;;;5092881;28;20032;-74
2021/12/07 09:50:10;;;;;;;62.83;21.70;;;5.30;99.90;;;;;;5092472;28;20032;-74
2021/12/07 09:52:36;;;;;;;81.47;22.73;;;5.50;99.90;;;;;;5092949;28;20126;-75
2021/12/07 09:55:04;;;;;;;50.13;25.65;;;6.00;99.90;;;;;;5090614;28;20181;-75
2021/12/07 09:57:30;;;;;;;23.10;10.68;;;6.00;99.90;;;;;;5093742;28;20032;-75
2021/12/07 16:57:48;;;;;;;17.33;6.95;;;5.20;99.90;;;;;;5065659;28;20395;-72
2021/12/07 17:00:27;;;;;;;23.45;9.82;;;5.30;99.90;;;;;;5064494;28;20045;-71
2021/12/07 17:02:54;;;;;;;22.40;9.38;;;5.30;99.90;;;;;;5089629;27;20037;-71
2021/12/07 17:05:26;;;;;;;17.63;8.55;;;5.30;99.90;;;;;;5045437;28;20052;-80
2021/12/07 17:07:54;;;;;;;13.38;5.85;;;5.30;99.90;;;;;;5042565;28;20490;-71
2021/12/07 17:10:22;;;;;;;16.95;5.60;;;5.50;99.90;;;;;;5043819;28;20515;-71
2021/12/07 17:12:49;;;;;;;19.67;5.93;;;5.40;99.90;;;;;;5042685;28;20057;-72
2021/12/07 17:15:16;;;;;;;11.40;4.32;;;5.40;99.90;;;;;;5042888;28;20075;-77
2021/12/07 17:17:43;;;;;;;11.20;4.25;;;5.40;99.90;;;;;;5043095;28;20407;-69
2021/12/07 17:20:11;;;;;;;12.15;4.50;;;5.40;99.90;;;;;;5058530;27;20109;-81
2021/12/07 17:22:37;;;;;;;9.55;4.07;;;5.40;99.90;;;;;;5063424;27;20440;-73
2021/12/07 17:25:08;;;;;;;9.63;4.10;;;5.40;99.90;;;;;;5062067;28;20414;-71
2021/12/07 17:27:34;;;;;;;13.85;5.78;;;5.40;99.90;;;;;;5062498;28;20053;-77
2021/12/07 17:29:59;;;;;;;14.00;5.40;;;5.50;99.90;;;;;;5054350;28;20372;-74
2021/12/07 17:32:26;;;;;;;12.57;4.10;;;5.40;99.90;;;;;;5061150;28;20069;-72
2021/12/07 17:34:53;;;;;;;8.60;3.53;;;5.40;99.90;;;;;;5060776;28;20036;-73
2021/12/07 17:37:18;;;;;;;9.70;3.65;;;5.30;99.90;;;;;;5054566;28;20032;-73
2021/12/07 17:39:48;;;;;;;13.60;4.45;;;5.30;99.90;;;;;;5062982;28;20052;-71
2021/12/07 17:42:16;;;;;;;13.32;5.13;;;5.30;99.90;;;;;;5059239;28;20433;-72
2021/12/07 17:44:42;;;;;;;14.57;5.57;;;5.30;99.90;;;;;;5056670;28;20037;-74
2021/12/07 17:47:08;;;;;;;14.60;6.18;;;5.30;99.90;;;;;;5064260;27;20545;-75
2021/12/07 17:49:34;;;;;;;25.42;8.57;;;5.20;99.90;;;;;;5061679;28;20134;-76
2021/12/07 17:52:03;;;;;;;28.13;10.07;;;5.10;99.90;;;;;;5063597;28;20040;-74
2021/12/07 17:54:29;;;;;;;19.00;7.50;;;5.10;99.90;;;;;;5063043;28;20040;-75
2021/12/07 17:56:55;;;;;;;37.35;13.13;;;5.10;99.90;;;;;;5050446;28;20650;-75
2021/12/07 17:59:22;;;;;;;18.50;8.07;;;5.00;99.90;;;;;;5046611;28;20048;-76
2021/12/07 18:01:48;;;;;;;29.13;11.43;;;5.00;99.90;;;;;;5048338;28;20538;-75
2021/12/07 18:04:16;;;;;;;17.50;6.78;;;5.00;99.90;;;;;;5050454;28;20051;-75
2021/12/07 18:06:50;;;;;;;12.52;5.85;;;5.00;99.90;;;;;;5048977;28;20064;-76
2021/12/07 18:09:16;;;;;;;19.05;6.43;;;4.90;99.90;;;;;;5047938;28;20376;-72
2021/12/07 18:11:42;;;;;;;17.15;6.30;;;4.90;99.90;;;;;;5048688;28;20047;-73
2021/12/07 18:14:08;;;;;;;17.88;5.82;;;4.90;99.90;;;;;;5047096;28;20036;-71
2021/12/07 18:16:34;;;;;;;15.50;6.32;;;4.90;99.90;;;;;;5048683;28;20098;-78
2021/12/07 18:19:01;;;;;;;14.88;7.10;;;4.90;99.90;;;;;;5048324;28;20065;-76
2021/12/07 18:21:28;;;;;;;14.40;6.97;;;4.80;99.90;;;;;;5025924;28;20114;-75
2021/12/07 18:23:55;;;;;;;20.02;8.68;;;4.80;99.90;;;;;;5049152;28;20106;-75
2021/12/07 18:26:21;;;;;;;17.92;8.93;;;4.90;99.90;;;;;;5049657;28;20041;-76
2021/12/07 18:28:47;;;;;;;17.00;7.85;;;4.90;99.90;;;;;;5048811;28;20040;-76
2021/12/07 18:31:16;;;;;;;13.48;5.90;;;4.90;99.90;;;;;;5048583;28;20127;-75
2021/12/07 18:33:43;;;;;;;10.80;4.65;;;4.90;99.90;;;;;;5048896;28;20135;-74
2021/12/07 18:36:11;;;;;;;11.65;4.97;;;4.90;99.90;;;;;;5049364;27;20045;-76
2021/12/07 18:38:40;;;;;;;11.07;5.15;;;5.00;99.90;;;;;;5049855;28;20048;-75
2021/12/07 18:41:11;;;;;;;11.95;5.20;;;4.90;99.90;;;;;;5049784;28;20487;-73
2021/12/07 18:43:37;;;;;;;12.50;5.20;;;4.90;99.90;;;;;;5046742;28;20056;-73
2021/12/07 18:46:03;;;;;;;12.32;6.22;;;5.00;99.90;;;;;;5049368;28;20380;-73
2021/12/07 18:48:31;;;;;;;11.80;5.80;;;4.90;99.90;;;;;;5049474;28;20406;-74
2021/12/07 18:50:57;;;;;;;11.68;5.28;;;4.90;99.90;;;;;;5049766;28;20072;-73
2021/12/07 18:53:23;;;;;;;13.30;5.97;;;4.90;99.90;;;;;;5046301;28;20564;-73
2021/12/07 18:55:51;;;;;;;11.35;5.22;;;4.80;99.90;;;;;;5048913;28;20048;-74
2021/12/07 18:58:17;;;;;;;13.43;6.78;;;4.80;99.90;;;;;;5048157;28;20499;-76
2021/12/07 19:00:47;;;;;;;17.13;6.25;;;4.80;99.90;;;;;;5047641;28;20044;-73
2021/12/07 19:03:14;;;;;;;17.17;6.13;;;4.90;99.90;;;;;;5048132;28;20716;-72
2021/12/07 19:05:42;;;;;;;12.05;5.28;;;4.80;99.90;;;;;;5048368;28;20055;-73
2021/12/07 19:08:12;;;;;;;10.77;4.85;;;4.80;99.90;;;;;;5048455;28;20037;-73
2021/12/07 19:10:40;;;;;;;8.82;3.85;;;4.80;99.90;;;;;;5047001;28;20056;-74
2021/12/07 19:13:08;;;;;;;11.50;4.40;;;4.90;99.90;;;;;;5046605;28;20048;-72
2021/12/07 19:15:34;;;;;;;10.35;3.92;;;4.90;99.90;;;;;;5047741;28;20579;-72
2021/12/07 19:18:01;;;;;;;7.35;3.50;;;4.80;99.90;;;;;;5046852;28;20048;-72
2021/12/07 19:20:28;;;;;;;9.27;3.53;;;4.80;99.90;;;;;;5047502;28;20051;-73
2021/12/07 19:22:57;;;;;;;8.85;3.58;;;4.80;99.90;;;;;;5046794;28;20091;-75
2021/12/07 19:25:24;;;;;;;13.20;4.07;;;4.90;99.90;;;;;;5027807;28;20037;-75
2021/12/07 19:27:50;;;;;;;5.38;2.92;;;4.80;99.90;;;;;;5026463;28;20037;-74
2021/12/07 19:30:20;;;;;;;9.13;3.13;;;4.90;99.90;;;;;;5041003;28;20056;-73
2021/12/07 19:32:50;;;;;;;;;;;4.90;99.90;;;;;;5048536;28;20495;-75
2021/12/07 19:35:19;;;;;;;10.38;3.05;;;4.90;99.90;;;;;;5048320;28;21894;-73
2021/12/07 19:37:46;;;;;;;8.32;3.38;;;4.80;99.90;;;;;;5048320;28;20143;-74
2021/12/07 19:40:15;;;;;;;7.18;3.58;;;4.90;99.90;;;;;;5048082;28;20054;-73
2021/12/07 19:42:42;;;;;;;9.05;2.92;;;4.80;99.90;;;;;;5048273;28;20163;-73
2021/12/07 19:45:14;;;;;;;8.88;2.78;;;4.90;99.90;;;;;;5046771;28;20037;-78
2021/12/07 19:47:41;;;;;;;9.57;3.30;;;4.80;99.90;;;;;;5050165;28;20555;-76
2021/12/07 19:50:10;;;;;;;8.13;3.33;;;4.90;99.90;;;;;;5047309;28;20040;-75
2021/12/07 19:52:37;;;;;;;6.70;2.75;;;4.80;99.90;;;;;;5048252;28;20075;-74
2021/12/07 19:55:06;;;;;;;5.53;3.08;;;4.80;99.90;;;;;;5048227;28;20064;-74
2021/12/07 19:57:32;;;;;;;7.18;3.08;;;4.80;99.90;;;;;;5047663;28;20052;-73
2021/12/07 19:59:59;;;;;;;8.25;3.13;;;4.70;99.90;;;;;;5049564;28;20392;-73
2021/12/07 20:02:25;;;;;;;10.95;2.88;;;4.80;99.90;;;;;;5049699;28;20040;-73
2021/12/07 20:04:51;;;;;;;7.60;2.70;;;4.70;99.90;;;;;;5048483;28;20123;-73
2021/12/07 20:07:18;;;;;;;6.32;2.88;;;4.70;99.90;;;;;;5047367;28;20084;-73
2021/12/07 20:09:46;;;;;;;7.43;3.17;;;4.70;99.90;;;;;;5047943;28;20097;-74
2021/12/07 20:12:17;;;;;;;5.72;3.30;;;4.70;99.90;;;;;;5047530;28;20076;-76
2021/12/07 20:14:44;;;;;;;12.90;5.03;;;4.70;99.90;;;;;;5045661;28;20044;-75
2021/12/07 20:17:13;;;;;;;32.08;12.30;;;4.70;99.90;;;;;;5048300;28;20059;-74
2021/12/07 20:19:41;;;;;;;13.95;6.13;;;4.70;99.90;;;;;;5047115;28;20077;-74
2021/12/07 20:22:07;;;;;;;7.50;3.15;;;4.70;99.90;;;;;;5047020;28;20045;-74
2021/12/07 20:24:34;;;;;;;23.75;9.88;;;4.60;99.90;;;;;;5046244;28;20032;-74
2021/12/07 20:27:00;;;;;;;6.97;3.58;;;4.60;99.90;;;;;;5046813;28;20037;-74
2021/12/07 20:29:27;;;;;;;7.13;3.45;;;4.60;99.90;;;;;;5046939;28;20033;-78
2021/12/07 20:31:55;;;;;;;7.13;3.53;;;4.60;99.90;;;;;;5048084;28;20129;-75
2021/12/07 20:34:21;;;;;;;13.77;6.43;;;4.60;99.90;;;;;;5047488;28;20033;-74
2021/12/07 20:36:47;;;;;;;5.68;3.28;;;4.60;99.90;;;;;;5048770;28;20048;-74
2021/12/07 20:39:13;;;;;;;6.45;2.80;;;4.50;99.90;;;;;;5047737;28;20037;-74
2021/12/07 20:41:40;;;;;;;6.20;3.67;;;4.60;99.90;;;;;;5048125;28;20118;-75
2021/12/07 20:44:10;;;;;;;8.77;2.97;;;4.60;99.90;;;;;;5047965;28;20056;-74
2021/12/07 20:46:37;;;;;;;6.70;2.60;;;4.60;99.90;;;;;;5048232;28;20092;-74
2021/12/07 20:49:04;;;;;;;6.18;2.85;;;4.70;99.90;;;;;;5049768;28;20052;-74
2021/12/07 20:51:31;;;;;;;6.20;2.50;;;4.60;99.90;;;;;;5047986;28;20476;-73
2021/12/07 20:53:57;;;;;;;8.48;2.55;;;4.70;99.90;;;;;;5047924;28;20107;-74
2021/12/07 20:56:23;;;;;;;9.88;2.72;;;4.60;99.90;;;;;;5047514;28;20102;-74
2021/12/07 20:58:51;;;;;;;9.55;2.92;;;4.60;99.90;;;;;;5044271;28;20033;-73
2021/12/07 21:01:19;;;;;;;7.18;2.92;;;4.70;99.90;;;;;;5047511;28;20036;-74
2021/12/07 21:03:46;;;;;;;8.38;2.97;;;4.60;99.90;;;;;;5046414;28;20091;-74
2021/12/07 21:06:13;;;;;;;9.27;2.50;;;4.60;99.90;;;;;;5047442;28;20093;-74
2021/12/07 21:08:40;;;;;;;4.43;2.67;;;4.60;99.90;;;;;;5047650;28;20083;-75
2021/12/07 21:11:08;;;;;;;5.55;2.50;;;4.50;99.90;;;;;;5047644;28;20041;-74
2021/12/07 21:13:35;;;;;;;8.18;2.72;;;4.60;99.90;;;;;;5047358;28;20124;-77
2021/12/07 21:16:04;;;;;;;7.82;2.88;;;4.60;99.90;;;;;;5047536;28;20458;-74